Time;durP1;ratioP1;P1;durP2;ratioP2;P2;SDS_P1;SDS_P2;PMS_P1;PMS_P2;Temp;Humidity;BMP_temperature;BMP_pressure;BME280_temperature;BME280_humidity;BME280_pressure;Samples;Min_cycle;Max_cycle;Signal;HPM_P1;HPM_P2
2021/05/05 00:01:55;;;;;;;5.10;2.20;;;7.80;99.90;;;;;;5061007;28;20052;-69
2021/05/05 00:04:23;;;;;;;4.43;2.50;;;7.80;99.90;;;;;;5062053;28;20110;-68
2021/05/05 00:06:54;;;;;;;3.95;2.30;;;7.80;99.90;;;;;;5061889;28;20053;-69
2021/05/05 00:09:22;;;;;;;3.90;2.47;;;7.80;99.90;;;;;;5062052;28;20057;-68
2021/05/05 00:11:49;;;;;;;3.15;2.28;;;7.80;99.90;;;;;;5062134;28;20108;-68
2021/05/05 00:14:18;;;;;;;4.97;2.55;;;7.80;99.90;;;;;;5057987;28;20049;-68
2021/05/05 00:16:45;;;;;;;5.13;2.50;;;7.80;99.90;;;;;;5033397;28;20765;-69
2021/05/05 00:19:13;;;;;;;6.90;2.72;;;7.70;99.90;;;;;;5049914;28;20099;-69
2021/05/05 00:21:41;;;;;;;5.45;2.45;;;7.70;99.90;;;;;;5048677;28;21760;-68
2021/05/05 00:24:09;;;;;;;4.45;2.45;;;7.80;99.90;;;;;;5050603;28;20509;-69
2021/05/05 00:26:37;;;;;;;4.25;2.30;;;7.70;99.90;;;;;;5050461;28;20442;-69
2021/05/05 00:29:05;;;;;;;5.20;2.40;;;7.80;99.90;;;;;;5050284;28;20064;-69
2021/05/05 00:31:33;;;;;;;5.90;2.28;;;7.70;99.90;;;;;;5050548;28;20508;-70
2021/05/05 00:34:06;;;;;;;6.97;2.55;;;7.70;99.90;;;;;;5049444;28;20087;-68
2021/05/05 00:36:33;;;;;;;5.28;2.20;;;7.80;99.90;;;;;;5050431;28;20447;-68
2021/05/05 00:39:01;;;;;;;6.78;2.50;;;7.70;99.90;;;;;;5050113;28;20084;-68
2021/05/05 00:41:28;;;;;;;5.63;2.45;;;7.70;99.90;;;;;;5051424;28;20453;-68
2021/05/05 00:43:54;;;;;;;2.90;2.00;;;7.70;99.90;;;;;;5049040;28;20122;-69
2021/05/05 00:46:21;;;;;;;6.68;2.30;;;7.70;99.90;;;;;;5049852;28;20048;-69
2021/05/05 00:48:48;;;;;;;5.85;2.38;;;7.70;99.90;;;;;;5050119;28;20045;-69
2021/05/05 00:51:15;;;;;;;3.67;2.00;;;7.60;99.90;;;;;;5048732;28;20045;-69
2021/05/05 00:53:42;;;;;;;5.60;2.15;;;7.60;99.90;;;;;;5050200;28;20750;-69
2021/05/05 00:56:10;;;;;;;3.95;1.90;;;7.60;99.90;;;;;;5049190;28;20041;-69
2021/05/05 00:58:37;;;;;;;5.57;2.78;;;7.60;99.90;;;;;;5048341;28;20095;-69
2021/05/05 01:01:05;;;;;;;3.75;1.90;;;7.50;99.90;;;;;;5047224;28;20049;-69
2021/05/05 01:03:33;;;;;;;5.05;2.10;;;7.50;99.90;;;;;;5047334;28;20493;-69
2021/05/05 01:06:02;;;;;;;7.43;2.17;;;7.50;99.90;;;;;;5049168;28;20049;-68
2021/05/05 01:08:31;;;;;;;4.82;2.20;;;7.50;99.90;;;;;;5047209;28;20095;-69
2021/05/05 01:11:01;;;;;;;3.67;1.80;;;7.40;99.90;;;;;;5049747;28;20123;-67
2021/05/05 01:13:30;;;;;;;5.95;2.20;;;7.40;99.90;;;;;;5048836;28;20056;-69
2021/05/05 01:15:57;;;;;;;4.88;2.10;;;7.40;99.90;;;;;;5049916;28;20128;-68
2021/05/05 01:18:27;;;;;;;6.95;2.20;;;7.50;99.90;;;;;;5047051;28;20515;-68
2021/05/05 01:20:59;;;;;;;4.32;1.83;;;7.50;99.90;;;;;;5049923;28;20500;-67
2021/05/05 01:23:27;;;;;;;5.85;2.08;;;7.50;99.90;;;;;;5047636;28;20126;-68
2021/05/05 01:25:55;;;;;;;5.80;2.28;;;7.40;99.90;;;;;;5048836;28;20411;-68
2021/05/05 01:28:23;;;;;;;5.85;2.17;;;7.40;99.90;;;;;;5045538;28;20128;-68
2021/05/05 01:30:51;;;;;;;4.55;1.92;;;7.40;99.90;;;;;;5030738;28;20044;-68
2021/05/05 01:33:18;;;;;;;5.13;2.10;;;7.40;99.90;;;;;;5034323;28;20099;-68
2021/05/05 01:35:48;;;;;;;7.30;2.00;;;7.30;99.90;;;;;;5045863;28;20118;-68
2021/05/05 01:38:16;;;;;;;6.75;2.10;;;7.30;99.90;;;;;;5046321;28;20515;-68
2021/05/05 01:40:46;;;;;;;5.10;2.05;;;7.30;99.90;;;;;;5047140;28;20135;-68
2021/05/05 01:43:12;;;;;;;6.90;2.28;;;7.30;99.90;;;;;;5045559;28;20044;-68
2021/05/05 01:45:41;;;;;;;8.07;2.65;;;7.30;99.90;;;;;;5047750;28;20128;-68
2021/05/05 01:48:10;;;;;;;11.98;2.40;;;7.30;99.90;;;;;;5047040;28;20041;-69
2021/05/05 01:50:38;;;;;;;4.10;2.08;;;7.30;99.90;;;;;;5051472;28;20097;-68
2021/05/05 01:53:06;;;;;;;6.68;2.15;;;7.40;99.90;;;;;;5052508;28;20065;-69
2021/05/05 01:55:35;;;;;;;5.88;2.25;;;7.30;99.90;;;;;;5053058;28;20049;-69
2021/05/05 01:58:05;;;;;;;5.85;2.35;;;7.30;99.90;;;;;;5051529;28;20068;-69
2021/05/05 02:00:35;;;;;;;7.25;2.33;;;7.20;99.90;;;;;;5046592;28;20503;-67
2021/05/05 02:03:09;;;;;;;8.15;2.30;;;7.20;99.90;;;;;;5049956;28;20109;-68
2021/05/05 02:06:11;;;;;;;5.47;2.20;;;7.20;99.90;;;;;;5045780;28;20068;-68
2021/05/05 02:08:53;;;;;;;12.18;2.50;;;7.20;99.90;;;;;;5066823;28;20045;-68
2021/05/05 02:11:21;;;;;;;4.25;2.10;;;7.20;99.90;;;;;;5051391;28;20064;-67
2021/05/05 02:13:48;;;;;;;6.70;2.22;;;7.10;99.90;;;;;;5052228;28;20491;-68
2021/05/05 02:16:15;;;;;;;5.78;1.92;;;7.10;99.90;;;;;;5051692;28;20037;-68
2021/05/05 02:18:52;;;;;;;6.15;2.20;;;7.10;99.90;;;;;;5050698;28;20167;-69
2021/05/05 02:21:20;;;;;;;6.63;2.20;;;7.10;99.90;;;;;;5051561;28;20448;-69
2021/05/05 02:23:47;;;;;;;5.72;1.90;;;7.00;99.90;;;;;;5050699;28;20115;-68
2021/05/05 02:26:14;;;;;;;4.82;1.90;;;7.00;99.90;;;;;;5051360;28;20040;-67
2021/05/05 02:28:43;;;;;;;5.00;2.33;;;7.10;99.90;;;;;;5050640;28;20132;-68
2021/05/05 02:31:49;;;;;;;4.68;2.13;;;7.10;99.90;;;;;;5028171;28;20050;-68
2021/05/05 02:34:18;;;;;;;5.07;1.92;;;7.10;99.90;;;;;;5011017;28;20112;-68
2021/05/05 02:36:45;;;;;;;5.60;2.15;;;7.20;99.90;;;;;;5028045;28;20141;-68
2021/05/05 02:39:18;;;;;;;5.40;2.13;;;7.20;99.90;;;;;;5012651;28;20124;-68
2021/05/05 02:41:47;;;;;;;5.25;2.10;;;7.20;99.90;;;;;;5028850;28;20280;-69
2021/05/05 02:44:15;;;;;;;6.45;2.10;;;7.30;99.90;;;;;;5012952;28;20544;-68
2021/05/05 02:46:44;;;;;;;4.97;2.00;;;7.20;99.90;;;;;;5029908;28;20053;-69
2021/05/05 02:49:12;;;;;;;4.63;2.20;;;7.20;99.90;;;;;;5012348;28;20095;-68
2021/05/05 02:51:40;;;;;;;7.05;2.00;;;7.20;99.90;;;;;;5029413;28;20129;-67
2021/05/05 02:54:08;;;;;;;5.25;2.10;;;7.20;99.90;;;;;;5029477;28;20046;-67
2021/05/05 02:56:35;;;;;;;6.68;2.30;;;7.20;99.90;;;;;;5029274;28;20128;-68
2021/05/05 02:59:03;;;;;;;7.32;2.45;;;7.20;99.90;;;;;;5027288;28;20670;-69
2021/05/05 03:01:29;;;;;;;9.07;2.45;;;7.20;99.90;;;;;;5029464;28;20045;-69
2021/05/05 03:03:57;;;;;;;7.20;2.45;;;7.10;99.90;;;;;;5049513;28;20114;-68
2021/05/05 03:06:23;;;;;;;4.60;2.40;;;7.10;99.90;;;;;;5051169;28;20562;-67
2021/05/05 03:08:51;;;;;;;7.65;2.60;;;7.10;99.90;;;;;;5051123;28;20154;-68
2021/05/05 03:11:17;;;;;;;5.22;2.15;;;7.10;99.90;;;;;;5050604;28;20045;-68
2021/05/05 03:13:44;;;;;;;6.18;2.50;;;7.10;99.90;;;;;;5051702;28;20041;-68
2021/05/05 03:16:11;;;;;;;5.65;2.50;;;7.10;99.90;;;;;;5051464;28;20519;-68
2021/05/05 03:18:38;;;;;;;4.70;2.28;;;7.20;99.90;;;;;;5050437;28;20037;-68
2021/05/05 03:21:05;;;;;;;9.43;2.92;;;7.10;99.90;;;;;;5051480;28;20934;-68
2021/05/05 03:23:32;;;;;;;6.00;2.90;;;7.10;99.90;;;;;;5046325;28;20486;-68
2021/05/05 03:25:59;;;;;;;6.65;2.50;;;7.10;99.90;;;;;;5049901;28;20626;-67
2021/05/05 03:28:26;;;;;;;4.82;2.35;;;7.10;99.90;;;;;;5049618;28;20045;-67
2021/05/05 03:30:53;;;;;;;7.53;2.60;;;7.10;99.90;;;;;;5048041;28;20522;-67
2021/05/05 03:33:20;;;;;;;5.75;2.40;;;7.10;99.90;;;;;;5049610;28;20045;-68
2021/05/05 03:35:47;;;;;;;6.95;2.53;;;7.10;99.90;;;;;;5047377;28;20041;-68
2021/05/05 03:38:13;;;;;;;5.97;2.35;;;7.10;99.90;;;;;;5048478;28;20441;-67
2021/05/05 03:40:40;;;;;;;6.22;2.60;;;7.10;99.90;;;;;;5050839;28;20045;-68
2021/05/05 03:43:07;;;;;;;6.35;2.70;;;7.00;99.90;;;;;;5049185;28;20075;-69
2021/05/05 03:45:34;;;;;;;6.53;2.47;;;7.00;99.90;;;;;;5051618;28;20044;-68
2021/05/05 03:48:02;;;;;;;5.82;2.63;;;7.00;99.90;;;;;;5050082;28;20052;-69
2021/05/05 03:50:29;;;;;;;4.68;2.40;;;6.90;99.90;;;;;;5047311;28;20106;-68
2021/05/05 03:52:58;;;;;;;6.13;2.90;;;7.00;99.90;;;;;;5049938;28;20048;-68
2021/05/05 03:55:25;;;;;;;5.28;2.33;;;6.90;99.90;;;;;;5049406;28;20053;-68
2021/05/05 03:57:53;;;;;;;8.18;2.70;;;7.00;99.90;;;;;;5050644;28;20544;-68
2021/05/05 04:00:21;;;;;;;5.25;2.60;;;7.00;99.90;;;;;;5048792;28;20075;-68
2021/05/05 04:02:49;;;;;;;6.10;2.50;;;7.00;99.90;;;;;;5047504;28;20049;-68
2021/05/05 04:05:16;;;;;;;6.82;2.97;;;7.00;99.90;;;;;;5048565;28;20048;-68
2021/05/05 04:07:43;;;;;;;5.90;2.28;;;6.90;99.90;;;;;;5049788;28;20052;-68
2021/05/05 04:10:10;;;;;;;8.27;2.90;;;7.00;99.90;;;;;;5049283;28;20136;-68
2021/05/05 04:12:39;;;;;;;7.95;2.53;;;7.00;99.90;;;;;;5047576;28;20119;-67
2021/05/05 04:15:25;;;;;;;7.05;3.17;;;7.00;99.90;;;;;;5048627;28;20036;-68
2021/05/05 04:18:11;;;;;;;5.97;2.85;;;7.10;99.90;;;;;;5049656;28;20017;-68
2021/05/05 04:21:00;;;;;;;7.38;2.65;;;7.10;99.90;;;;;;5049467;28;20415;-69
2021/05/05 04:23:45;;;;;;;7.55;2.60;;;6.90;99.90;;;;;;5048206;28;20029;-69
2021/05/05 04:26:18;;;;;;;4.88;2.55;;;7.00;99.90;;;;;;5048602;28;20045;-68
2021/05/05 04:28:46;;;;;;;7.45;2.70;;;7.00;99.90;;;;;;5047815;28;20044;-68
2021/05/05 04:31:13;;;;;;;5.07;2.38;;;6.90;99.90;;;;;;5046591;28;20057;-69
2021/05/05 04:33:43;;;;;;;5.40;2.60;;;7.00;99.90;;;;;;5048091;28;20198;-68
2021/05/05 04:36:09;;;;;;;6.55;2.90;;;7.00;99.90;;;;;;5049253;28;20045;-69
2021/05/05 04:38:36;;;;;;;6.13;2.22;;;7.00;99.90;;;;;;5045711;28;20076;-69
2021/05/05 04:41:03;;;;;;;4.28;2.40;;;7.00;99.90;;;;;;5051216;28;20484;-69
2021/05/05 04:43:30;;;;;;;6.93;2.50;;;7.00;99.90;;;;;;5049739;28;20044;-69
2021/05/05 04:45:57;;;;;;;6.78;2.50;;;7.10;99.90;;;;;;5050415;28;20048;-69
2021/05/05 04:48:24;;;;;;;7.25;2.83;;;7.20;99.90;;;;;;5049180;28;20118;-69
2021/05/05 04:50:51;;;;;;;4.07;2.40;;;7.20;99.90;;;;;;5048157;28;20055;-69
2021/05/05 04:53:18;;;;;;;5.53;2.60;;;7.10;99.90;;;;;;5047552;28;20053;-69
2021/05/05 04:55:45;;;;;;;8.27;2.63;;;7.10;99.90;;;;;;5047609;28;20080;-69
2021/05/05 04:58:12;;;;;;;6.30;2.97;;;7.20;99.90;;;;;;5047634;28;20722;-69
2021/05/05 05:00:39;;;;;;;5.90;2.83;;;7.10;99.90;;;;;;5049585;28;20067;-69
2021/05/05 05:03:06;;;;;;;7.00;2.50;;;7.20;99.90;;;;;;5048106;28;20466;-69
2021/05/05 05:05:33;;;;;;;5.95;3.67;;;7.20;99.90;;;;;;5045902;28;20056;-69
2021/05/05 05:07:59;;;;;;;4.55;2.25;;;7.30;99.90;;;;;;5049005;28;20126;-69
2021/05/05 05:10:27;;;;;;;6.75;2.97;;;7.20;99.90;;;;;;5048923;28;20044;-69
2021/05/05 05:12:55;;;;;;;6.70;3.67;;;7.30;99.90;;;;;;5048857;28;20049;-69
2021/05/05 05:15:22;;;;;;;5.80;2.83;;;7.30;99.90;;;;;;5034008;28;20132;-69
2021/05/05 05:17:49;;;;;;;5.60;2.90;;;7.30;99.90;;;;;;5047986;28;20090;-68
2021/05/05 05:20:16;;;;;;;7.43;3.10;;;7.40;99.90;;;;;;5048275;28;20081;-68
2021/05/05 05:22:44;;;;;;;8.82;3.25;;;7.40;99.90;;;;;;5047830;28;20049;-69
2021/05/05 05:25:11;;;;;;;7.65;4.07;;;7.40;99.90;;;;;;5053772;28;20140;-69
2021/05/05 05:27:39;;;;;;;7.45;3.08;;;7.50;99.90;;;;;;5052941;28;20122;-68
2021/05/05 05:30:07;;;;;;;5.32;2.50;;;7.50;99.90;;;;;;5053770;28;20620;-69
2021/05/05 05:32:35;;;;;;;5.72;2.90;;;7.60;99.90;;;;;;5051047;28;20099;-68
2021/05/05 05:35:03;;;;;;;6.45;2.90;;;7.60;99.90;;;;;;5051883;28;20051;-70
2021/05/05 05:37:30;;;;;;;8.90;2.63;;;7.50;99.90;;;;;;5052886;28;20094;-68
2021/05/05 05:39:57;;;;;;;7.32;3.10;;;7.50;99.90;;;;;;5055009;28;20061;-69
2021/05/05 05:42:24;;;;;;;7.55;2.75;;;7.50;99.90;;;;;;5052555;28;20045;-69
2021/05/05 05:44:50;;;;;;;5.68;3.35;;;7.50;99.90;;;;;;5050960;28;20407;-69
2021/05/05 05:47:17;;;;;;;6.07;3.17;;;7.50;99.90;;;;;;5050439;28;20057;-69
2021/05/05 05:49:44;;;;;;;9.30;3.08;;;7.50;99.90;;;;;;5052456;28;20069;-68
2021/05/05 05:52:11;;;;;;;9.98;2.95;;;7.60;99.90;;;;;;5051797;28;20514;-67
2021/05/05 05:54:39;;;;;;;5.50;2.97;;;7.60;99.90;;;;;;5052233;28;20091;-69
2021/05/05 05:57:05;;;;;;;8.70;3.15;;;7.60;99.90;;;;;;5049432;28;20050;-68
2021/05/05 05:59:33;;;;;;;7.05;3.30;;;7.70;99.90;;;;;;5050316;28;20045;-68
2021/05/05 06:02:00;;;;;;;6.85;3.10;;;7.80;99.90;;;;;;5049882;28;20503;-68
2021/05/05 06:04:26;;;;;;;5.97;2.70;;;7.80;99.90;;;;;;5052696;28;20052;-68
2021/05/05 06:06:53;;;;;;;6.30;3.10;;;7.90;99.90;;;;;;5051208;28;20045;-68
2021/05/05 06:09:20;;;;;;;5.57;2.90;;;8.00;99.90;;;;;;5052772;28;20434;-68
2021/05/05 06:11:47;;;;;;;4.90;2.85;;;8.10;99.90;;;;;;5050249;28;20158;-69
2021/05/05 06:14:15;;;;;;;6.00;3.30;;;8.20;99.90;;;;;;5052866;28;20048;-69
2021/05/05 06:16:42;;;;;;;6.68;3.08;;;8.30;99.90;;;;;;5052145;28;20045;-68
2021/05/05 06:19:09;;;;;;;5.75;3.22;;;8.20;99.90;;;;;;5053009;28;20120;-69
2021/05/05 06:21:36;;;;;;;7.88;3.25;;;8.20;99.90;;;;;;5050633;28;20535;-69
2021/05/05 06:24:04;;;;;;;7.85;2.92;;;8.20;99.90;;;;;;5052376;28;20073;-69
2021/05/05 06:26:32;;;;;;;4.32;2.60;;;8.20;99.90;;;;;;5049437;28;20105;-69
2021/05/05 06:28:59;;;;;;;4.43;2.80;;;8.20;99.90;;;;;;5052468;28;20048;-69
2021/05/05 06:31:27;;;;;;;7.82;3.00;;;8.40;99.90;;;;;;5052973;28;20494;-68
2021/05/05 06:33:53;;;;;;;8.70;3.45;;;8.40;99.90;;;;;;5051661;28;20449;-69
2021/05/05 06:36:20;;;;;;;9.52;3.10;;;8.50;99.90;;;;;;5049613;28;20072;-67
2021/05/05 06:38:47;;;;;;;7.78;4.07;;;8.50;99.90;;;;;;5042512;28;20525;-68
2021/05/05 06:41:14;;;;;;;5.07;3.03;;;8.40;99.90;;;;;;5047752;28;20080;-68
2021/05/05 06:43:41;;;;;;;7.07;3.92;;;8.40;99.90;;;;;;5040190;28;20140;-68
2021/05/05 06:46:08;;;;;;;6.22;3.38;;;8.40;99.90;;;;;;5046466;28;20063;-68
2021/05/05 06:48:35;;;;;;;6.90;3.58;;;8.40;99.90;;;;;;5045918;28;20049;-67
2021/05/05 06:51:02;;;;;;;9.27;3.70;;;8.40;99.90;;;;;;5050917;28;20048;-69
2021/05/05 06:53:29;;;;;;;7.85;3.50;;;8.50;99.90;;;;;;5050670;28;20045;-69
2021/05/05 06:55:56;;;;;;;6.65;3.45;;;8.50;99.90;;;;;;5051876;28;20247;-69
2021/05/05 06:58:23;;;;;;;6.28;3.55;;;8.40;99.90;;;;;;5049611;28;20788;-68
2021/05/05 07:00:50;;;;;;;5.75;3.83;;;8.40;99.90;;;;;;5051519;28;20530;-69
2021/05/05 07:03:16;;;;;;;8.07;3.80;;;8.50;99.90;;;;;;5050319;28;20049;-69
2021/05/05 07:05:43;;;;;;;6.05;4.22;;;8.50;99.90;;;;;;5051188;28;20622;-69
2021/05/05 07:08:10;;;;;;;7.30;3.50;;;8.50;99.90;;;;;;5050916;28;20053;-69
2021/05/05 07:10:37;;;;;;;8.15;3.50;;;8.50;99.90;;;;;;5051644;28;20072;-68
2021/05/05 07:13:04;;;;;;;13.07;4.38;;;8.50;99.90;;;;;;5051272;28;20037;-69
2021/05/05 07:15:31;;;;;;;6.97;3.85;;;8.40;99.90;;;;;;5050057;28;20130;-69
2021/05/05 07:17:58;;;;;;;8.30;4.03;;;8.30;99.90;;;;;;5051552;28;20514;-69
2021/05/05 07:20:25;;;;;;;8.25;3.50;;;8.30;99.90;;;;;;5052801;28;20060;-69
2021/05/05 07:22:56;;;;;;;8.13;3.72;;;8.30;99.90;;;;;;5048006;28;20132;-69
2021/05/05 07:25:23;;;;;;;7.88;3.88;;;8.40;99.90;;;;;;5045653;28;20515;-69
2021/05/05 07:27:50;;;;;;;7.88;3.85;;;8.30;99.90;;;;;;5048747;28;20053;-69
2021/05/05 07:30:18;;;;;;;10.48;3.80;;;8.30;99.90;;;;;;5051677;28;20053;-70
2021/05/05 07:32:45;;;;;;;5.45;3.88;;;8.40;99.90;;;;;;5047662;28;20053;-69
2021/05/05 07:35:13;;;;;;;6.57;3.97;;;8.20;99.90;;;;;;5050448;28;20045;-69
2021/05/05 07:48:12;;;;;;;6.85;3.85;;;8.10;99.90;;;;;;5032872;28;20129;-69
2021/05/05 07:50:39;;;;;;;5.90;3.90;;;8.20;99.90;;;;;;5051176;28;20487;-69
2021/05/05 07:53:06;;;;;;;7.82;3.75;;;8.30;99.90;;;;;;5050462;28;20033;-67
2021/05/05 07:55:32;;;;;;;10.30;4.82;;;8.50;99.90;;;;;;5052081;28;20029;-69
2021/05/05 07:57:59;;;;;;;9.88;4.10;;;8.60;99.90;;;;;;5050184;28;20060;-68
2021/05/05 08:00:26;;;;;;;10.15;4.30;;;8.70;99.90;;;;;;5048644;28;20414;-68
2021/05/05 08:02:52;;;;;;;10.00;4.30;;;8.90;99.90;;;;;;5049251;28;20056;-68
2021/05/05 08:05:19;;;;;;;7.07;3.92;;;8.90;99.90;;;;;;5047067;28;20493;-67
2021/05/05 08:07:50;;;;;;;7.97;3.90;;;9.20;99.90;;;;;;5046309;28;20061;-69
2021/05/05 08:10:16;;;;;;;7.13;3.90;;;9.50;99.90;;;;;;5048333;28;20049;-68
2021/05/05 08:12:43;;;;;;;7.47;4.35;;;9.90;99.90;;;;;;5047996;28;20052;-69
2021/05/05 08:15:11;;;;;;;7.50;5.03;;;10.00;99.90;;;;;;5048014;28;20091;-68
2021/05/05 08:17:38;;;;;;;8.32;5.50;;;10.10;99.90;;;;;;5050151;28;20049;-69
2021/05/05 08:20:06;;;;;;;9.63;6.30;;;10.10;99.90;;;;;;5049100;28;20041;-69
2021/05/05 08:22:34;;;;;;;10.52;6.45;;;10.10;99.90;;;;;;5048283;28;20049;-69
2021/05/05 08:25:00;;;;;;;7.10;6.40;;;10.00;99.90;;;;;;5048764;28;20049;-69
2021/05/05 08:27:27;;;;;;;7.72;6.15;;;9.90;99.90;;;;;;5031977;28;20048;-68
2021/05/05 08:29:54;;;;;;;6.97;6.38;;;10.00;99.90;;;;;;5049455;28;20065;-68
2021/05/05 08:32:21;;;;;;;8.52;7.22;;;10.20;99.90;;;;;;5047089;28;20072;-67
2021/05/05 08:34:49;;;;;;;10.35;7.13;;;10.10;99.90;;;;;;5045730;28;20055;-69
2021/05/05 08:37:19;;;;;;;8.57;7.13;;;9.90;99.90;;;;;;5041980;28;20078;-67
2021/05/05 08:39:46;;;;;;;8.15;6.40;;;9.80;99.90;;;;;;5049066;28;20037;-68
2021/05/05 08:42:14;;;;;;;8.30;6.90;;;9.50;99.90;;;;;;5050036;28;20053;-69
2021/05/05 08:44:46;;;;;;;9.20;6.38;;;9.50;99.90;;;;;;5050458;28;20135;-67
2021/05/05 08:47:16;;;;;;;10.38;7.25;;;9.20;99.90;;;;;;5047633;28;20044;-68
2021/05/05 08:49:45;;;;;;;9.32;6.82;;;8.80;99.90;;;;;;5050223;28;20052;-69
2021/05/05 08:52:12;;;;;;;9.60;7.13;;;8.70;99.90;;;;;;5049719;28;20037;-69
2021/05/05 08:54:41;;;;;;;8.88;6.95;;;8.60;99.90;;;;;;5046983;28;20059;-69
2021/05/05 08:57:08;;;;;;;10.90;6.85;;;8.50;99.90;;;;;;5049495;28;20053;-69
2021/05/05 08:59:35;;;;;;;9.02;6.72;;;8.70;99.90;;;;;;5052424;28;20414;-67
2021/05/05 09:02:03;;;;;;;7.45;6.38;;;8.90;99.90;;;;;;5051497;28;20045;-68
2021/05/05 09:04:30;;;;;;;8.23;6.90;;;9.10;99.90;;;;;;5053753;28;20674;-70
2021/05/05 09:06:59;;;;;;;9.35;6.70;;;9.10;99.90;;;;;;5052436;28;20068;-68
2021/05/05 09:09:30;;;;;;;9.15;7.28;;;9.40;99.90;;;;;;5052338;28;20127;-68
2021/05/05 09:11:57;;;;;;;8.30;7.47;;;9.60;99.90;;;;;;5054343;28;20052;-72
2021/05/05 09:14:27;;;;;;;8.90;7.00;;;9.70;99.90;;;;;;5054375;28;20044;-69
2021/05/05 09:16:55;;;;;;;9.38;7.30;;;9.90;99.90;;;;;;5052868;28;20507;-69
2021/05/05 09:19:22;;;;;;;9.00;7.70;;;10.10;99.90;;;;;;5051731;28;20452;-69
2021/05/05 09:21:52;;;;;;;8.20;7.40;;;10.40;99.90;;;;;;5051629;28;20048;-69
2021/05/05 09:24:27;;;;;;;9.77;7.75;;;10.70;99.90;;;;;;5051881;28;20044;-68
2021/05/05 09:27:03;;;;;;;8.57;7.88;;;11.10;99.90;;;;;;5035948;28;20116;-69
2021/05/05 09:29:46;;;;;;;10.48;8.35;;;11.10;99.90;;;;;;5053090;28;20049;-68
2021/05/05 09:32:21;;;;;;;9.38;8.27;;;10.80;99.90;;;;;;5053402;28;20041;-68
2021/05/05 09:35:05;;;;;;;9.55;8.00;;;10.20;99.90;;;;;;5049141;28;20072;-69
2021/05/05 09:37:32;;;;;;;8.95;7.90;;;9.90;99.90;;;;;;5046728;28;20052;-69
2021/05/05 09:40:11;;;;;;;8.30;7.40;;;9.90;99.90;;;;;;5055125;28;20049;-69
2021/05/05 09:42:43;;;;;;;8.63;7.82;;;10.30;99.90;;;;;;5066033;28;20071;-70
2021/05/05 09:45:12;;;;;;;8.35;7.65;;;10.40;99.90;;;;;;5051995;28;20052;-70
2021/05/05 09:47:52;;;;;;;9.23;8.27;;;10.50;99.90;;;;;;5052646;28;20055;-70
2021/05/05 09:50:25;;;;;;;9.23;7.95;;;10.60;99.90;;;;;;5051998;28;20096;-70
2021/05/05 09:53:11;;;;;;;8.90;8.20;;;10.70;99.90;;;;;;5050298;28;20044;-70
2021/05/05 09:55:39;;;;;;;8.95;8.10;;;11.10;99.90;;;;;;5053672;28;20044;-70
2021/05/05 09:58:24;;;;;;;9.30;8.40;;;11.30;99.90;;;;;;5052678;28;20488;-68
2021/05/05 10:03:40;;;;;;;9.43;8.43;;;11.40;99.90;;;;;;5048289;28;20483;-68
2021/05/05 10:06:26;;;;;;;9.57;7.68;;;11.50;99.90;;;;;;5034199;28;20060;-68
2021/05/05 10:09:00;;;;;;;9.02;8.23;;;11.50;99.90;;;;;;5052405;28;20071;-69
2021/05/05 10:11:27;;;;;;;9.40;8.30;;;11.70;99.90;;;;;;5052017;28;20049;-69
2021/05/05 10:14:05;;;;;;;9.43;8.43;;;12.00;99.90;;;;;;5051931;28;20506;-70
2021/05/05 10:16:39;;;;;;;9.57;8.63;;;12.10;99.90;;;;;;5048022;28;20045;-69
2021/05/05 10:19:12;;;;;;;9.35;8.48;;;11.50;99.90;;;;;;5049607;28;20415;-68
2021/05/05 10:21:43;;;;;;;8.93;8.13;;;11.20;99.90;;;;;;5050711;28;20498;-69
2021/05/05 10:24:11;;;;;;;9.13;8.40;;;11.20;99.90;;;;;;5050613;28;20511;-70
2021/05/05 10:26:41;;;;;;;9.20;8.50;;;11.30;99.90;;;;;;5050924;28;20052;-69
2021/05/05 10:29:09;;;;;;;8.95;8.15;;;11.40;99.90;;;;;;5052513;28;20411;-70
2021/05/05 10:31:37;;;;;;;9.15;8.25;;;11.10;99.90;;;;;;5052870;28;20053;-69
2021/05/05 10:34:16;;;;;;;9.00;8.15;;;11.00;99.90;;;;;;5052976;28;20044;-70
2021/05/05 10:36:49;;;;;;;8.57;7.88;;;11.10;99.90;;;;;;5051073;28;20041;-71
2021/05/05 10:39:18;;;;;;;9.10;7.90;;;11.50;99.90;;;;;;5053215;28;20045;-69
2021/05/05 10:41:59;;;;;;;13.30;8.30;;;11.40;99.90;;;;;;5050074;28;20053;-70
2021/05/05 10:44:43;;;;;;;9.88;8.50;;;11.70;99.90;;;;;;5037979;28;20071;-69
2021/05/05 10:47:36;;;;;;;9.30;8.50;;;11.70;99.90;;;;;;5050147;28;20428;-69
2021/05/05 10:50:13;;;;;;;8.77;8.10;;;11.40;99.90;;;;;;5051643;28;20403;-68
2021/05/05 10:52:47;;;;;;;9.75;8.95;;;11.10;99.90;;;;;;5051390;28;20045;-68
2021/05/05 10:55:18;;;;;;;9.32;8.38;;;10.70;99.90;;;;;;5048910;28;20123;-69
2021/05/05 10:58:07;;;;;;;9.10;8.20;;;10.70;99.90;;;;;;5051889;28;20441;-70
2021/05/05 11:00:49;;;;;;;8.65;7.95;;;11.10;99.90;;;;;;5051569;28;20106;-68
2021/05/05 11:03:17;;;;;;;9.35;8.45;;;11.80;99.90;;;;;;5050160;28;20162;-68
2021/05/05 11:05:47;;;;;;;9.70;8.75;;;12.20;99.90;;;;;;5051235;28;20056;-69
2021/05/05 11:08:24;;;;;;;8.95;8.13;;;12.30;99.90;;;;;;5049302;28;20077;-72
2021/05/05 11:10:53;;;;;;;9.18;8.27;;;12.50;99.90;;;;;;5035832;28;20042;-70
2021/05/05 11:13:23;;;;;;;12.23;8.20;;;12.00;99.90;;;;;;5049978;28;20057;-68
2021/05/05 11:15:50;;;;;;;10.65;9.13;;;11.50;99.90;;;;;;5050172;28;20202;-69
2021/05/05 11:18:30;;;;;;;9.52;8.32;;;10.90;99.90;;;;;;5050953;28;20045;-69
2021/05/05 11:21:04;;;;;;;10.98;8.60;;;10.70;99.90;;;;;;5050845;28;20073;-70
2021/05/05 11:23:43;;;;;;;8.77;8.05;;;10.50;99.90;;;;;;5050928;28;20141;-69
2021/05/05 11:26:26;;;;;;;8.40;7.70;;;10.60;99.90;;;;;;5050962;28;20054;-68
2021/05/05 11:29:00;;;;;;;8.75;8.05;;;10.80;99.90;;;;;;5049589;28;20049;-69
2021/05/05 11:34:24;;;;;;;8.02;7.43;;;10.90;99.90;;;;;;5051073;28;20037;-70
2021/05/05 11:37:20;;;;;;;8.40;7.60;;;10.80;99.90;;;;;;5045722;28;20056;-67
2021/05/05 11:40:00;;;;;;;8.65;7.80;;;11.40;99.90;;;;;;5051178;28;20059;-69
2021/05/05 11:42:36;;;;;;;10.85;8.10;;;11.50;99.90;;;;;;5050346;28;20059;-68
2021/05/05 11:45:13;;;;;;;8.75;7.85;;;11.80;99.90;;;;;;5051071;28;20053;-68
2021/05/05 11:47:46;;;;;;;8.50;7.80;;;12.20;99.90;;;;;;5049300;28;20055;-68
2021/05/05 11:50:19;;;;;;;12.25;9.10;;;12.20;99.90;;;;;;5034776;28;20048;-69
2021/05/05 11:53:03;;;;;;;8.52;7.82;;;12.50;99.90;;;;;;5047144;28;20048;-70
2021/05/05 11:55:30;;;;;;;10.23;7.10;;;13.00;99.90;;;;;;5052231;28;20102;-69
2021/05/05 11:57:59;;;;;;;9.52;8.48;;;12.90;99.90;;;;;;5050376;28;20045;-69
2021/05/05 12:00:33;;;;;;;9.10;8.30;;;12.30;99.90;;;;;;5050781;28;20099;-69
2021/05/05 12:03:04;;;;;;;15.50;11.20;;;11.30;99.90;;;;;;5051222;28;20045;-68
2021/05/05 12:05:39;;;;;;;12.55;11.55;;;8.60;99.90;;;;;;5044479;28;20072;-69
2021/05/05 12:08:19;;;;;;;9.35;8.45;;;5.90;99.90;;;;;;5034130;28;20049;-68
2021/05/05 12:10:54;;;;;;;7.90;7.20;;;5.30;99.90;;;;;;5049197;28;20581;-69
2021/05/05 12:13:25;;;;;;;8.38;5.40;;;4.90;99.90;;;;;;5048174;28;20126;-69
2021/05/05 12:16:06;;;;;;;6.63;5.50;;;4.70;99.90;;;;;;5049129;28;20106;-69
2021/05/05 12:18:36;;;;;;;4.88;4.30;;;4.70;99.90;;;;;;5035509;28;20075;-68
2021/05/05 12:21:09;;;;;;;4.50;3.90;;;4.80;99.90;;;;;;5048676;28;20052;-70
2021/05/05 12:23:37;;;;;;;6.57;4.22;;;5.20;99.90;;;;;;5047841;28;20076;-69
2021/05/05 12:26:25;;;;;;;6.32;3.95;;;5.60;99.90;;;;;;5048863;28;20053;-69
2021/05/05 12:29:00;;;;;;;5.40;3.42;;;6.10;99.90;;;;;;5049409;28;20041;-69
2021/05/05 12:31:29;;;;;;;4.47;3.45;;;6.30;99.90;;;;;;5049334;28;20581;-69
2021/05/05 12:33:59;;;;;;;3.90;3.50;;;6.50;99.90;;;;;;5047499;28;20147;-68
2021/05/05 12:36:31;;;;;;;6.28;3.55;;;6.80;99.90;;;;;;5048100;28;20144;-69
2021/05/05 12:39:00;;;;;;;3.72;3.22;;;7.00;99.90;;;;;;5048735;28;20061;-69
2021/05/05 12:41:38;;;;;;;4.10;3.45;;;7.10;99.90;;;;;;5033644;28;20040;-69
2021/05/05 12:44:05;;;;;;;4.10;3.70;;;7.20;99.90;;;;;;5046957;28;20045;-67
2021/05/05 12:46:55;;;;;;;4.82;3.53;;;7.50;99.90;;;;;;5046427;28;20527;-66
2021/05/05 12:49:33;;;;;;;4.13;3.25;;;7.50;99.90;;;;;;5044287;28;20507;-67
2021/05/05 12:52:22;;;;;;;3.60;2.65;;;7.90;99.90;;;;;;5048271;28;20064;-66
2021/05/05 12:54:49;;;;;;;3.88;2.70;;;8.20;99.90;;;;;;5045558;28;20049;-67
2021/05/05 12:57:21;;;;;;;3.17;2.80;;;8.10;99.90;;;;;;5047474;28;20045;-67
2021/05/05 12:59:51;;;;;;;;;;;8.30;99.90;;;;;;5047479;28;20045;-66
2021/05/05 13:02:25;;;;;;;4.13;3.20;;;8.50;99.90;;;;;;5049814;28;20387;-66
2021/05/05 13:05:06;;;;;;;4.25;3.50;;;8.60;99.90;;;;;;5064108;28;20535;-66
2021/05/05 13:07:40;;;;;;;5.93;3.95;;;9.10;99.90;;;;;;5047205;28;20541;-66
2021/05/05 13:10:22;;;;;;;4.00;3.60;;;9.20;99.90;;;;;;5047435;28;20503;-66
2021/05/05 13:13:06;;;;;;;4.88;3.75;;;9.40;99.90;;;;;;5047666;28;20071;-66
2021/05/05 13:33:05;;;;;;;8.05;5.20;;;11.40;99.90;;;;;;5047276;28;20128;-67
2021/05/05 13:35:35;;;;;;;6.10;5.50;;;12.30;99.90;;;;;;5038604;28;20056;-66
2021/05/05 13:38:10;;;;;;;7.78;5.78;;;12.60;99.90;;;;;;5041365;28;20128;-65
2021/05/05 13:40:50;;;;;;;6.57;6.07;;;12.60;99.90;;;;;;5042403;28;20053;-67
2021/05/05 13:46:06;;;;;;;7.45;6.47;;;14.60;99.90;;;;;;5046170;28;20099;-67
2021/05/05 13:51:16;;;;;;;7.57;6.88;;;13.70;99.90;;;;;;5042871;28;20053;-65